sensor_id;sensor_type;location;lat;lon;timestamp;P1;durP1;ratioP1;P2;durP2;ratioP2
23384;SDS011;11865;45.394;10.978;2023-08-06T00:01:18;7.05;;;2.97;;
23384;SDS011;11865;45.394;10.978;2023-08-06T00:03:48;5.40;;;2.97;;
23384;SDS011;11865;45.394;10.978;2023-08-06T00:06:16;7.43;;;3.72;;
23384;SDS011;11865;45.394;10.978;2023-08-06T00:08:43;5.70;;;3.05;;
23384;SDS011;11865;45.394;10.978;2023-08-06T00:11:10;4.78;;;2.85;;
23384;SDS011;11865;45.394;10.978;2023-08-06T00:13:39;5.35;;;3.03;;
23384;SDS011;11865;45.394;10.978;2023-08-06T00:16:13;4.70;;;3.10;;
23384;SDS011;11865;45.394;10.978;2023-08-06T00:18:41;3.30;;;2.38;;
23384;SDS011;11865;45.394;10.978;2023-08-06T00:21:09;5.18;;;2.85;;
23384;SDS011;11865;45.394;10.978;2023-08-06T00:23:39;6.28;;;2.83;;
23384;SDS011;11865;45.394;10.978;2023-08-06T00:26:07;3.70;;;2.45;;
23384;SDS011;11865;45.394;10.978;2023-08-06T00:28:35;4.45;;;2.55;;
23384;SDS011;11865;45.394;10.978;2023-08-06T00:31:02;6.63;;;2.45;;
23384;SDS011;11865;45.394;10.978;2023-08-06T00:33:30;4.40;;;2.92;;
23384;SDS011;11865;45.394;10.978;2023-08-06T00:35:57;3.60;;;2.80;;
23384;SDS011;11865;45.394;10.978;2023-08-06T00:38:25;5.38;;;3.40;;
23384;SDS011;11865;45.394;10.978;2023-08-06T00:40:52;4.30;;;2.97;;
23384;SDS011;11865;45.394;10.978;2023-08-06T00:43:20;5.57;;;3.53;;
23384;SDS011;11865;45.394;10.978;2023-08-06T00:45:47;4.85;;;3.38;;
23384;SDS011;11865;45.394;10.978;2023-08-06T00:48:15;4.78;;;3.45;;
23384;SDS011;11865;45.394;10.978;2023-08-06T00:50:43;6.65;;;3.53;;
23384;SDS011;11865;45.394;10.978;2023-08-06T00:53:10;6.70;;;3.70;;
23384;SDS011;11865;45.394;10.978;2023-08-06T00:55:41;6.20;;;3.30;;
23384;SDS011;11865;45.394;10.978;2023-08-06T00:58:12;5.25;;;3.33;;
23384;SDS011;11865;45.394;10.978;2023-08-06T01:00:40;6.00;;;3.38;;
23384;SDS011;11865;45.394;10.978;2023-08-06T01:03:08;4.85;;;3.20;;
23384;SDS011;11865;45.394;10.978;2023-08-06T01:05:35;7.55;;;3.17;;
23384;SDS011;11865;45.394;10.978;2023-08-06T01:13:48;5.25;;;2.90;;
23384;SDS011;11865;45.394;10.978;2023-08-06T01:16:19;3.35;;;2.90;;
23384;SDS011;11865;45.394;10.978;2023-08-06T01:18:48;4.82;;;3.10;;
23384;SDS011;11865;45.394;10.978;2023-08-06T01:21:19;4.43;;;3.05;;
23384;SDS011;11865;45.394;10.978;2023-08-06T01:23:46;5.55;;;3.05;;
23384;SDS011;11865;45.394;10.978;2023-08-06T01:26:27;5.07;;;3.28;;
23384;SDS011;11865;45.394;10.978;2023-08-06T01:31:39;6.97;;;3.00;;
23384;SDS011;11865;45.394;10.978;2023-08-06T01:34:11;4.85;;;3.05;;
23384;SDS011;11865;45.394;10.978;2023-08-06T01:36:44;3.22;;;2.90;;
23384;SDS011;11865;45.394;10.978;2023-08-06T01:39:12;4.47;;;3.05;;
23384;SDS011;11865;45.394;10.978;2023-08-06T01:41:40;5.38;;;3.00;;
23384;SDS011;11865;45.394;10.978;2023-08-06T01:44:09;7.35;;;3.13;;
23384;SDS011;11865;45.394;10.978;2023-08-06T01:46:36;3.05;;;2.75;;
23384;SDS011;11865;45.394;10.978;2023-08-06T01:49:04;6.18;;;2.80;;
23384;SDS011;11865;45.394;10.978;2023-08-06T01:51:31;6.93;;;3.15;;
23384;SDS011;11865;45.394;10.978;2023-08-06T01:53:59;5.97;;;2.97;;
23384;SDS011;11865;45.394;10.978;2023-08-06T01:56:27;3.35;;;2.75;;
23384;SDS011;11865;45.394;10.978;2023-08-06T01:58:54;4.80;;;2.90;;
23384;SDS011;11865;45.394;10.978;2023-08-06T02:01:22;4.47;;;2.40;;
23384;SDS011;11865;45.394;10.978;2023-08-06T02:03:50;3.88;;;2.80;;
23384;SDS011;11865;45.394;10.978;2023-08-06T02:06:17;4.50;;;2.78;;
23384;SDS011;11865;45.394;10.978;2023-08-06T02:08:45;5.72;;;2.80;;
23384;SDS011;11865;45.394;10.978;2023-08-06T02:11:14;4.03;;;2.75;;
23384;SDS011;11865;45.394;10.978;2023-08-06T02:13:42;3.92;;;2.72;;
23384;SDS011;11865;45.394;10.978;2023-08-06T02:16:15;6.90;;;3.05;;
23384;SDS011;11865;45.394;10.978;2023-08-06T02:18:42;4.32;;;2.85;;
23384;SDS011;11865;45.394;10.978;2023-08-06T02:21:10;4.78;;;2.83;;
23384;SDS011;11865;45.394;10.978;2023-08-06T02:23:37;8.10;;;2.67;;
23384;SDS011;11865;45.394;10.978;2023-08-06T02:26:05;7.50;;;2.85;;
23384;SDS011;11865;45.394;10.978;2023-08-06T02:28:32;3.38;;;2.50;;
23384;SDS011;11865;45.394;10.978;2023-08-06T02:31:00;7.05;;;3.53;;
23384;SDS011;11865;45.394;10.978;2023-08-06T02:33:28;4.65;;;2.65;;
23384;SDS011;11865;45.394;10.978;2023-08-06T02:35:58;7.47;;;2.72;;
23384;SDS011;11865;45.394;10.978;2023-08-06T02:40:56;7.03;;;2.30;;
23384;SDS011;11865;45.394;10.978;2023-08-06T02:43:23;5.32;;;2.53;;
23384;SDS011;11865;45.394;10.978;2023-08-06T02:45:51;4.97;;;2.53;;
23384;SDS011;11865;45.394;10.978;2023-08-06T02:48:19;3.33;;;2.40;;
23384;SDS011;11865;45.394;10.978;2023-08-06T02:50:46;3.28;;;2.38;;
23384;SDS011;11865;45.394;10.978;2023-08-06T02:53:14;9.70;;;2.92;;
23384;SDS011;11865;45.394;10.978;2023-08-06T02:55:46;4.22;;;2.40;;
23384;SDS011;11865;45.394;10.978;2023-08-06T02:58:21;5.93;;;2.63;;
23384;SDS011;11865;45.394;10.978;2023-08-06T03:01:08;4.80;;;2.40;;
23384;SDS011;11865;45.394;10.978;2023-08-06T03:03:47;6.38;;;2.65;;
23384;SDS011;11865;45.394;10.978;2023-08-06T03:06:21;2.92;;;2.47;;
23384;SDS011;11865;45.394;10.978;2023-08-06T03:08:52;3.10;;;2.60;;
23384;SDS011;11865;45.394;10.978;2023-08-06T03:11:20;5.28;;;3.20;;
23384;SDS011;11865;45.394;10.978;2023-08-06T03:13:49;7.05;;;3.20;;
23384;SDS011;11865;45.394;10.978;2023-08-06T03:16:17;4.45;;;3.25;;
23384;SDS011;11865;45.394;10.978;2023-08-06T03:18:45;6.15;;;4.03;;
23384;SDS011;11865;45.394;10.978;2023-08-06T03:21:12;4.40;;;3.50;;
23384;SDS011;11865;45.394;10.978;2023-08-06T03:23:40;5.78;;;3.13;;
23384;SDS011;11865;45.394;10.978;2023-08-06T03:26:08;4.75;;;3.10;;
23384;SDS011;11865;45.394;10.978;2023-08-06T03:28:36;5.10;;;3.55;;
23384;SDS011;11865;45.394;10.978;2023-08-06T03:31:05;3.83;;;3.25;;
23384;SDS011;11865;45.394;10.978;2023-08-06T03:33:41;4.35;;;2.95;;
23384;SDS011;11865;45.394;10.978;2023-08-06T03:36:14;3.60;;;2.95;;
23384;SDS011;11865;45.394;10.978;2023-08-06T03:38:42;7.03;;;3.33;;
23384;SDS011;11865;45.394;10.978;2023-08-06T03:41:12;5.30;;;2.95;;
23384;SDS011;11865;45.394;10.978;2023-08-06T03:43:40;4.22;;;3.03;;
23384;SDS011;11865;45.394;10.978;2023-08-06T03:46:11;2.97;;;2.67;;
23384;SDS011;11865;45.394;10.978;2023-08-06T03:48:39;6.07;;;3.35;;
23384;SDS011;11865;45.394;10.978;2023-08-06T03:51:07;3.78;;;2.97;;
23384;SDS011;11865;45.394;10.978;2023-08-06T03:53:35;4.50;;;2.90;;
23384;SDS011;11865;45.394;10.978;2023-08-06T03:56:02;5.32;;;2.88;;
23384;SDS011;11865;45.394;10.978;2023-08-06T03:58:31;5.20;;;3.15;;
23384;SDS011;11865;45.394;10.978;2023-08-06T04:01:00;3.75;;;2.65;;
23384;SDS011;11865;45.394;10.978;2023-08-06T04:03:37;3.25;;;2.58;;
23384;SDS011;11865;45.394;10.978;2023-08-06T04:06:05;4.53;;;3.10;;
23384;SDS011;11865;45.394;10.978;2023-08-06T04:08:34;2.85;;;2.55;;
23384;SDS011;11865;45.394;10.978;2023-08-06T04:11:02;3.47;;;2.70;;
23384;SDS011;11865;45.394;10.978;2023-08-06T04:13:30;3.80;;;2.90;;
23384;SDS011;11865;45.394;10.978;2023-08-06T04:16:04;4.00;;;3.03;;
23384;SDS011;11865;45.394;10.978;2023-08-06T04:18:32;5.13;;;2.97;;
23384;SDS011;11865;45.394;10.978;2023-08-06T04:21:01;4.20;;;2.95;;
23384;SDS011;11865;45.394;10.978;2023-08-06T04:23:29;4.28;;;3.10;;
23384;SDS011;11865;45.394;10.978;2023-08-06T04:26:01;6.97;;;3.10;;
23384;SDS011;11865;45.394;10.978;2023-08-06T04:28:32;4.18;;;2.95;;
23384;SDS011;11865;45.394;10.978;2023-08-06T04:31:00;5.05;;;3.13;;
23384;SDS011;11865;45.394;10.978;2023-08-06T04:33:30;5.93;;;3.00;;
23384;SDS011;11865;45.394;10.978;2023-08-06T04:36:01;4.70;;;3.22;;
23384;SDS011;11865;45.394;10.978;2023-08-06T04:38:29;5.25;;;3.28;;
23384;SDS011;11865;45.394;10.978;2023-08-06T04:40:57;5.90;;;2.65;;
23384;SDS011;11865;45.394;10.978;2023-08-06T04:43:25;5.68;;;3.10;;
23384;SDS011;11865;45.394;10.978;2023-08-06T04:45:53;4.90;;;2.90;;
23384;SDS011;11865;45.394;10.978;2023-08-06T04:48:22;3.45;;;3.00;;
23384;SDS011;11865;45.394;10.978;2023-08-06T04:50:50;5.72;;;2.63;;
23384;SDS011;11865;45.394;10.978;2023-08-06T04:53:17;3.42;;;2.92;;
23384;SDS011;11865;45.394;10.978;2023-08-06T04:55:45;4.60;;;3.25;;
23384;SDS011;11865;45.394;10.978;2023-08-06T04:58:13;7.95;;;3.63;;
23384;SDS011;11865;45.394;10.978;2023-08-06T05:00:40;3.58;;;3.10;;
23384;SDS011;11865;45.394;10.978;2023-08-06T05:03:08;3.63;;;3.30;;
23384;SDS011;11865;45.394;10.978;2023-08-06T05:05:36;4.13;;;2.95;;
23384;SDS011;11865;45.394;10.978;2023-08-06T05:08:03;5.75;;;3.30;;
23384;SDS011;11865;45.394;10.978;2023-08-06T05:10:31;6.72;;;2.97;;
23384;SDS011;11865;45.394;10.978;2023-08-06T05:12:58;4.10;;;3.42;;
23384;SDS011;11865;45.394;10.978;2023-08-06T05:15:26;4.28;;;3.25;;
23384;SDS011;11865;45.394;10.978;2023-08-06T05:17:53;7.47;;;2.80;;
23384;SDS011;11865;45.394;10.978;2023-08-06T05:20:21;4.35;;;2.97;;
23384;SDS011;11865;45.394;10.978;2023-08-06T05:22:48;6.28;;;3.13;;
23384;SDS011;11865;45.394;10.978;2023-08-06T05:25:16;3.35;;;2.90;;
23384;SDS011;11865;45.394;10.978;2023-08-06T05:27:43;7.88;;;3.38;;
23384;SDS011;11865;45.394;10.978;2023-08-06T05:30:11;6.47;;;3.35;;
23384;SDS011;11865;45.394;10.978;2023-08-06T05:32:38;9.60;;;3.60;;
23384;SDS011;11865;45.394;10.978;2023-08-06T05:35:06;11.93;;;4.13;;
23384;SDS011;11865;45.394;10.978;2023-08-06T05:37:33;6.47;;;3.65;;
23384;SDS011;11865;45.394;10.978;2023-08-06T05:40:01;4.38;;;3.25;;
23384;SDS011;11865;45.394;10.978;2023-08-06T05:42:30;3.95;;;3.08;;
23384;SDS011;11865;45.394;10.978;2023-08-06T05:44:57;5.90;;;2.75;;
23384;SDS011;11865;45.394;10.978;2023-08-06T05:47:25;3.85;;;2.85;;
23384;SDS011;11865;45.394;10.978;2023-08-06T05:49:52;7.22;;;2.90;;
23384;SDS011;11865;45.394;10.978;2023-08-06T05:52:20;3.97;;;2.50;;
23384;SDS011;11865;45.394;10.978;2023-08-06T05:54:47;3.92;;;2.70;;
23384;SDS011;11865;45.394;10.978;2023-08-06T05:57:15;5.75;;;2.67;;
23384;SDS011;11865;45.394;10.978;2023-08-06T05:59:43;4.32;;;2.33;;
23384;SDS011;11865;45.394;10.978;2023-08-06T06:02:11;6.72;;;2.65;;
23384;SDS011;11865;45.394;10.978;2023-08-06T06:04:40;4.28;;;2.90;;
23384;SDS011;11865;45.394;10.978;2023-08-06T06:07:07;3.22;;;2.83;;
23384;SDS011;11865;45.394;10.978;2023-08-06T06:09:35;5.72;;;3.05;;
23384;SDS011;11865;45.394;10.978;2023-08-06T06:12:02;5.78;;;3.88;;
23384;SDS011;11865;45.394;10.978;2023-08-06T06:14:30;4.95;;;3.03;;
23384;SDS011;11865;45.394;10.978;2023-08-06T06:16:58;5.55;;;3.28;;
23384;SDS011;11865;45.394;10.978;2023-08-06T06:19:27;4.10;;;2.83;;
23384;SDS011;11865;45.394;10.978;2023-08-06T06:21:55;4.57;;;2.95;;
23384;SDS011;11865;45.394;10.978;2023-08-06T06:24:24;3.53;;;2.90;;
23384;SDS011;11865;45.394;10.978;2023-08-06T06:26:52;4.43;;;3.08;;
23384;SDS011;11865;45.394;10.978;2023-08-06T06:29:19;4.07;;;2.70;;
23384;SDS011;11865;45.394;10.978;2023-08-06T06:31:47;4.75;;;3.03;;
23384;SDS011;11865;45.394;10.978;2023-08-06T06:34:14;3.75;;;2.97;;
23384;SDS011;11865;45.394;10.978;2023-08-06T06:36:42;4.88;;;3.38;;
23384;SDS011;11865;45.394;10.978;2023-08-06T06:39:09;3.70;;;3.20;;
23384;SDS011;11865;45.394;10.978;2023-08-06T06:41:37;3.72;;;2.80;;
23384;SDS011;11865;45.394;10.978;2023-08-06T06:44:15;5.25;;;3.03;;
23384;SDS011;11865;45.394;10.978;2023-08-06T06:46:43;3.88;;;2.72;;
23384;SDS011;11865;45.394;10.978;2023-08-06T06:49:10;2.10;;;1.90;;
23384;SDS011;11865;45.394;10.978;2023-08-06T06:51:38;4.60;;;2.15;;
23384;SDS011;11865;45.394;10.978;2023-08-06T06:54:06;3.75;;;2.10;;
23384;SDS011;11865;45.394;10.978;2023-08-06T06:56:34;2.67;;;1.85;;
23384;SDS011;11865;45.394;10.978;2023-08-06T06:59:01;3.45;;;1.88;;
23384;SDS011;11865;45.394;10.978;2023-08-06T07:01:29;2.67;;;1.75;;
23384;SDS011;11865;45.394;10.978;2023-08-06T07:03:56;2.92;;;1.95;;
23384;SDS011;11865;45.394;10.978;2023-08-06T07:06:24;4.13;;;2.08;;
23384;SDS011;11865;45.394;10.978;2023-08-06T07:08:51;4.28;;;2.45;;
23384;SDS011;11865;45.394;10.978;2023-08-06T07:11:19;3.72;;;1.67;;
23384;SDS011;11865;45.394;10.978;2023-08-06T07:13:46;1.95;;;1.50;;
23384;SDS011;11865;45.394;10.978;2023-08-06T07:16:14;3.53;;;1.55;;
23384;SDS011;11865;45.394;10.978;2023-08-06T07:18:41;1.65;;;1.23;;
23384;SDS011;11865;45.394;10.978;2023-08-06T07:21:09;2.67;;;1.40;;
23384;SDS011;11865;45.394;10.978;2023-08-06T07:23:36;2.55;;;1.10;;
23384;SDS011;11865;45.394;10.978;2023-08-06T07:26:04;1.23;;;0.90;;
23384;SDS011;11865;45.394;10.978;2023-08-06T07:28:31;3.08;;;0.90;;
23384;SDS011;11865;45.394;10.978;2023-08-06T07:30:58;2.45;;;1.10;;
23384;SDS011;11865;45.394;10.978;2023-08-06T07:33:26;0.95;;;0.70;;
23384;SDS011;11865;45.394;10.978;2023-08-06T07:35:53;0.95;;;0.93;;
23384;SDS011;11865;45.394;10.978;2023-08-06T07:38:21;3.08;;;1.17;;
23384;SDS011;11865;45.394;10.978;2023-08-06T07:40:48;2.08;;;0.90;;
23384;SDS011;11865;45.394;10.978;2023-08-06T07:43:16;0.70;;;0.70;;
23384;SDS011;11865;45.394;10.978;2023-08-06T07:45:43;2.08;;;0.95;;
23384;SDS011;11865;45.394;10.978;2023-08-06T07:48:11;2.75;;;1.00;;
23384;SDS011;11865;45.394;10.978;2023-08-06T07:50:38;1.83;;;1.25;;
23384;SDS011;11865;45.394;10.978;2023-08-06T07:53:06;1.52;;;1.00;;
23384;SDS011;11865;45.394;10.978;2023-08-06T07:55:34;2.83;;;1.08;;
23384;SDS011;11865;45.394;10.978;2023-08-06T07:58:01;1.38;;;1.10;;
23384;SDS011;11865;45.394;10.978;2023-08-06T08:00:28;2.13;;;1.25;;
23384;SDS011;11865;45.394;10.978;2023-08-06T08:02:56;2.30;;;1.00;;
23384;SDS011;11865;45.394;10.978;2023-08-06T08:05:24;4.57;;;1.00;;
23384;SDS011;11865;45.394;10.978;2023-08-06T08:07:51;2.70;;;0.88;;
23384;SDS011;11865;45.394;10.978;2023-08-06T08:10:19;1.08;;;0.60;;
23384;SDS011;11865;45.394;10.978;2023-08-06T08:12:46;1.25;;;0.85;;
23384;SDS011;11865;45.394;10.978;2023-08-06T08:15:14;1.48;;;0.80;;
23384;SDS011;11865;45.394;10.978;2023-08-06T08:17:42;1.30;;;0.80;;
23384;SDS011;11865;45.394;10.978;2023-08-06T08:20:09;1.40;;;0.88;;
23384;SDS011;11865;45.394;10.978;2023-08-06T08:22:37;4.70;;;1.30;;
23384;SDS011;11865;45.394;10.978;2023-08-06T08:25:04;3.97;;;0.90;;
23384;SDS011;11865;45.394;10.978;2023-08-06T08:27:32;1.40;;;0.98;;
23384;SDS011;11865;45.394;10.978;2023-08-06T08:30:00;1.40;;;1.05;;
23384;SDS011;11865;45.394;10.978;2023-08-06T08:32:27;1.85;;;0.90;;
23384;SDS011;11865;45.394;10.978;2023-08-06T08:34:55;2.58;;;1.63;;
23384;SDS011;11865;45.394;10.978;2023-08-06T08:37:22;2.08;;;1.20;;
23384;SDS011;11865;45.394;10.978;2023-08-06T08:39:50;3.00;;;1.70;;
23384;SDS011;11865;45.394;10.978;2023-08-06T08:42:19;3.50;;;1.75;;
23384;SDS011;11865;45.394;10.978;2023-08-06T08:44:47;1.83;;;1.45;;
23384;SDS011;11865;45.394;10.978;2023-08-06T08:47:15;2.50;;;1.50;;
23384;SDS011;11865;45.394;10.978;2023-08-06T08:49:43;2.80;;;1.48;;
23384;SDS011;11865;45.394;10.978;2023-08-06T08:52:11;2.20;;;1.50;;
23384;SDS011;11865;45.394;10.978;2023-08-06T08:54:41;2.65;;;1.60;;
23384;SDS011;11865;45.394;10.978;2023-08-06T08:57:10;5.55;;;1.83;;
23384;SDS011;11865;45.394;10.978;2023-08-06T08:59:38;4.53;;;1.65;;
